createdAt,value
2023-05-15T00:01:24.554Z,16.80
2023-05-15T00:03:52.804Z,16.79
2023-05-15T00:06:24.660Z,16.75
2023-05-15T00:08:52.393Z,16.76
2023-05-15T00:11:20.203Z,16.76
2023-05-15T00:13:47.955Z,16.81
2023-05-15T00:16:15.782Z,16.71
2023-05-15T00:18:43.526Z,16.69
2023-05-15T00:21:11.266Z,16.72
2023-05-15T00:23:40.250Z,16.74
2023-05-15T00:26:07.862Z,16.71
2023-05-15T00:28:35.436Z,16.67
2023-05-15T00:31:03.094Z,16.62
2023-05-15T00:33:31.094Z,16.62
2023-05-15T00:35:58.860Z,16.63
2023-05-15T00:38:26.539Z,16.64
2023-05-15T00:40:56.796Z,16.61
2023-05-15T00:43:27.260Z,16.61
2023-05-15T00:45:55.357Z,16.62
2023-05-15T00:48:25.368Z,16.59
2023-05-15T00:50:53.101Z,16.50
2023-05-15T00:53:20.839Z,16.49
2023-05-15T00:55:48.544Z,16.45
2023-05-15T00:58:18.166Z,16.39
2023-05-15T01:00:47.426Z,16.33
2023-05-15T01:03:15.333Z,16.31
2023-05-15T01:05:43.245Z,16.26
2023-05-15T01:08:21.614Z,16.22
2023-05-15T01:10:50.199Z,16.22
2023-05-15T01:13:21.192Z,16.27
2023-05-15T01:15:49.893Z,16.21
2023-05-15T01:18:17.788Z,16.13
2023-05-15T01:21:07.379Z,16.15
2023-05-15T01:23:46.829Z,16.18
2023-05-15T01:26:35.796Z,16.22
2023-05-15T01:29:13.372Z,16.19
2023-05-15T01:31:44.273Z,16.18
2023-05-15T01:34:12.770Z,16.15
2023-05-15T01:36:47.197Z,16.16
2023-05-15T01:39:17.873Z,16.13
2023-05-15T01:41:52.118Z,16.10
2023-05-15T01:44:27.153Z,16.08
2023-05-15T01:46:58.667Z,16.04
2023-05-15T01:49:29.021Z,15.97
2023-05-15T01:52:00.673Z,15.99
2023-05-15T01:54:30.773Z,15.99
2023-05-15T01:57:00.032Z,15.96
2023-05-15T01:59:30.552Z,15.96
2023-05-15T02:01:59.330Z,15.94
2023-05-15T02:04:27.578Z,15.93
2023-05-15T02:06:56.781Z,15.81
2023-05-15T02:09:24.955Z,15.69
2023-05-15T02:11:52.866Z,15.67
2023-05-15T02:14:21.530Z,15.69
2023-05-15T02:16:51.240Z,15.54
2023-05-15T02:19:19.085Z,15.47
2023-05-15T02:21:46.851Z,15.49
2023-05-15T02:24:14.546Z,15.57
2023-05-15T02:26:50.947Z,15.52
2023-05-15T02:29:21.651Z,15.51
2023-05-15T02:32:00.523Z,15.45
2023-05-15T02:34:35.672Z,15.47
2023-05-15T02:37:05.646Z,15.37
2023-05-15T02:39:35.367Z,15.41
2023-05-15T02:42:03.706Z,15.39
2023-05-15T02:44:32.724Z,15.38
2023-05-15T02:47:02.820Z,15.36
2023-05-15T02:49:30.726Z,15.28
2023-05-15T02:51:58.618Z,15.29
2023-05-15T02:54:26.680Z,15.37
2023-05-15T02:56:54.728Z,15.36
2023-05-15T02:59:23.007Z,15.35
2023-05-15T03:01:50.828Z,15.32
2023-05-15T03:04:19.826Z,15.31
2023-05-15T03:06:47.503Z,15.40
2023-05-15T03:09:15.204Z,15.46
2023-05-15T03:11:43.013Z,15.47
2023-05-15T03:14:10.803Z,15.40
2023-05-15T03:16:38.922Z,15.38
2023-05-15T03:19:06.884Z,15.36
2023-05-15T03:21:35.877Z,15.38
2023-05-15T03:24:03.774Z,15.38
2023-05-15T03:26:31.363Z,15.37
2023-05-15T03:28:59.151Z,15.42
2023-05-15T03:31:26.807Z,15.45
2023-05-15T03:33:54.771Z,15.44
2023-05-15T03:36:25.244Z,15.38
2023-05-15T03:38:54.206Z,15.41
2023-05-15T03:41:22.338Z,15.42
2023-05-15T03:43:50.188Z,15.47
2023-05-15T03:46:18.166Z,15.44
2023-05-15T03:48:45.983Z,15.38
2023-05-15T03:51:14.061Z,15.40
2023-05-15T03:53:42.019Z,15.39
2023-05-15T03:56:11.569Z,15.35
2023-05-15T03:58:41.665Z,15.29
2023-05-15T04:01:09.660Z,15.24
2023-05-15T04:03:37.424Z,15.24
2023-05-15T04:06:05.776Z,15.23
2023-05-15T04:08:33.632Z,15.20
2023-05-15T04:11:01.661Z,14.96
2023-05-15T04:13:30.643Z,14.96
2023-05-15T04:15:59.806Z,14.96
2023-05-15T04:18:27.506Z,14.93
2023-05-15T04:20:55.137Z,14.98
2023-05-15T04:23:22.767Z,14.92
2023-05-15T04:25:53.664Z,14.97
2023-05-15T04:28:21.773Z,15.06
2023-05-15T04:30:50.876Z,15.03
2023-05-15T04:33:18.541Z,14.93
2023-05-15T04:35:46.356Z,14.85
2023-05-15T04:38:13.982Z,14.73
2023-05-15T04:40:41.671Z,14.85
2023-05-15T04:43:09.361Z,14.95
2023-05-15T04:45:37.309Z,15.04
2023-05-15T04:48:07.059Z,15.12
2023-05-15T04:50:34.752Z,15.13
2023-05-15T04:53:02.412Z,15.16
2023-05-15T04:55:31.655Z,15.12
2023-05-15T04:57:59.429Z,15.19
2023-05-15T05:00:27.315Z,15.21
2023-05-15T05:02:54.968Z,15.25
2023-05-15T05:05:24.222Z,15.31
2023-05-15T05:07:52.182Z,15.11
2023-05-15T05:10:19.998Z,15.17
2023-05-15T05:12:47.597Z,15.25
2023-05-15T05:15:15.385Z,15.27
2023-05-15T05:17:43.111Z,15.29
2023-05-15T05:20:13.270Z,15.29
2023-05-15T05:22:42.760Z,15.31
2023-05-15T05:25:11.054Z,15.33
2023-05-15T05:27:38.772Z,15.41
2023-05-15T05:30:08.683Z,15.39
2023-05-15T05:32:36.520Z,15.33
2023-05-15T05:35:04.876Z,15.23
2023-05-15T05:37:32.518Z,15.23
2023-05-15T05:40:01.517Z,15.27
2023-05-15T05:42:30.099Z,15.36
2023-05-15T05:44:57.818Z,15.38
2023-05-15T05:47:25.432Z,15.23
2023-05-15T05:49:55.051Z,15.18
2023-05-15T05:52:22.770Z,15.14
2023-05-15T05:54:50.631Z,14.97
2023-05-15T05:57:19.674Z,15.01
2023-05-15T05:59:47.375Z,15.09
2023-05-15T06:02:15.058Z,15.18
2023-05-15T06:04:42.881Z,15.18
2023-05-15T06:07:10.808Z,15.16
2023-05-15T06:09:38.399Z,15.14
2023-05-15T06:12:08.393Z,15.16
2023-05-15T06:14:37.536Z,15.15
2023-05-15T06:17:06.344Z,15.21
2023-05-15T06:19:34.094Z,15.23
2023-05-15T06:22:01.935Z,15.27
2023-05-15T06:24:29.665Z,15.26
2023-05-15T06:26:57.505Z,15.29
2023-05-15T06:29:25.627Z,15.30
2023-05-15T06:31:54.786Z,15.38
2023-05-15T06:34:22.390Z,15.43
2023-05-15T06:36:51.854Z,15.41
2023-05-15T06:39:20.098Z,15.45
2023-05-15T06:41:47.728Z,15.47
2023-05-15T06:44:15.740Z,15.44
2023-05-15T06:46:43.487Z,15.63
2023-05-15T06:49:12.564Z,15.78
2023-05-15T06:51:40.230Z,15.90
2023-05-15T06:54:08.192Z,16.03
2023-05-15T06:56:35.945Z,16.07
2023-05-15T06:59:03.872Z,16.19
2023-05-15T07:01:32.248Z,16.26
2023-05-15T07:04:00.024Z,16.35
2023-05-15T07:06:29.128Z,16.33
2023-05-15T07:08:56.880Z,16.31
2023-05-15T07:11:24.484Z,16.39
2023-05-15T07:13:53.042Z,16.40
2023-05-15T07:16:20.782Z,16.42
2023-05-15T07:18:48.662Z,16.41
2023-05-15T07:21:16.526Z,16.43
2023-05-15T07:23:45.586Z,16.38
2023-05-15T07:26:20.091Z,16.40
2023-05-15T07:28:55.530Z,16.46
2023-05-15T07:31:23.480Z,16.46
2023-05-15T07:33:51.181Z,16.40
2023-05-15T07:36:18.775Z,16.41
2023-05-15T07:38:47.905Z,16.37
2023-05-15T07:41:15.591Z,16.41
2023-05-15T07:43:43.283Z,16.48
2023-05-15T07:46:11.417Z,16.58
2023-05-15T07:48:39.224Z,16.67
2023-05-15T07:51:07.522Z,16.77
2023-05-15T07:53:35.151Z,16.89
2023-05-15T07:56:04.375Z,16.95
2023-05-15T07:58:33.968Z,16.86
2023-05-15T08:01:01.806Z,16.78
2023-05-15T08:03:29.643Z,16.85
2023-05-15T08:05:57.285Z,16.98
2023-05-15T08:08:24.996Z,17.06
2023-05-15T08:10:52.697Z,17.08
2023-05-15T08:13:21.809Z,17.18
2023-05-15T08:15:49.446Z,17.28
2023-05-15T08:18:17.205Z,17.22
2023-05-15T08:20:44.896Z,17.19
2023-05-15T08:23:15.050Z,17.20
2023-05-15T08:25:42.704Z,17.17
2023-05-15T08:28:11.004Z,17.24
2023-05-15T08:30:40.110Z,17.30
2023-05-15T08:33:07.785Z,17.36
2023-05-15T08:35:35.669Z,17.37
2023-05-15T08:38:04.456Z,17.46
2023-05-15T08:40:39.303Z,17.55
2023-05-15T08:43:14.971Z,17.61
2023-05-15T08:45:44.760Z,17.52
2023-05-15T08:48:15.284Z,17.54
2023-05-15T08:50:44.501Z,17.55
2023-05-15T08:53:13.713Z,17.62
2023-05-15T08:55:42.467Z,17.65
2023-05-15T08:58:10.636Z,17.76
2023-05-15T09:00:38.651Z,17.89
2023-05-15T09:03:07.943Z,18.00
2023-05-15T09:05:37.990Z,18.02
2023-05-15T09:08:09.081Z,18.06
2023-05-15T09:10:37.113Z,18.06
2023-05-15T09:13:07.399Z,18.12
2023-05-15T09:15:37.164Z,18.13
2023-05-15T09:18:07.845Z,18.23
2023-05-15T09:20:36.804Z,18.24
2023-05-15T09:23:06.570Z,18.22
2023-05-15T09:25:39.364Z,18.24
2023-05-15T09:28:08.111Z,18.27
2023-05-15T09:30:38.994Z,18.35
2023-05-15T09:33:10.003Z,18.39
2023-05-15T09:35:39.184Z,18.35
2023-05-15T09:38:10.274Z,18.50
2023-05-15T09:40:40.579Z,18.67
2023-05-15T09:43:10.999Z,18.76
2023-05-15T09:45:38.848Z,18.72
2023-05-15T09:48:11.840Z,18.73
2023-05-15T09:50:40.964Z,18.82
2023-05-15T09:53:12.997Z,18.90
2023-05-15T09:55:42.993Z,18.89
2023-05-15T09:58:12.649Z,18.90
2023-05-15T10:00:47.530Z,18.97
2023-05-15T10:03:20.215Z,18.99
2023-05-15T10:05:48.197Z,19.08
2023-05-15T10:08:16.846Z,19.15
2023-05-15T10:10:45.531Z,19.18
2023-05-15T10:13:13.277Z,19.21
2023-05-15T10:15:43.022Z,19.26
2023-05-15T10:18:11.801Z,19.33
2023-05-15T10:20:41.473Z,19.40
2023-05-15T10:23:11.580Z,19.39
2023-05-15T10:25:43.540Z,19.41
2023-05-15T10:28:13.112Z,19.43
2023-05-15T10:30:41.229Z,19.50
2023-05-15T10:33:09.587Z,19.48
2023-05-15T10:35:39.281Z,19.55
2023-05-15T10:38:08.472Z,19.58
2023-05-15T10:40:38.949Z,19.63
2023-05-15T10:43:10.168Z,19.69
2023-05-15T10:45:38.154Z,19.73
2023-05-15T10:48:12.363Z,19.77
2023-05-15T10:50:40.519Z,19.80
2023-05-15T10:53:10.467Z,19.84
2023-05-15T10:55:38.513Z,19.83
2023-05-15T10:58:09.852Z,19.84
2023-05-15T11:00:43.202Z,19.87
2023-05-15T11:03:15.006Z,19.87
2023-05-15T11:06:08.268Z,19.89
2023-05-15T11:08:37.432Z,19.87
2023-05-15T11:11:05.365Z,19.84
2023-05-15T11:14:10.654Z,19.89
2023-05-15T11:17:05.223Z,19.97
2023-05-15T11:19:35.811Z,20.11
2023-05-15T11:22:17.575Z,20.17
2023-05-15T11:24:54.991Z,20.14
2023-05-15T11:27:24.349Z,20.19
2023-05-15T11:30:07.503Z,20.21
2023-05-15T11:33:00.671Z,20.27
2023-05-15T11:35:30.598Z,20.24
2023-05-15T11:38:00.381Z,20.35
2023-05-15T11:40:31.082Z,20.50
2023-05-15T11:43:04.318Z,20.50
2023-05-15T11:45:33.926Z,20.44
2023-05-15T11:48:03.572Z,20.43
2023-05-15T11:50:33.778Z,20.41
2023-05-15T11:53:06.381Z,20.46
2023-05-15T11:55:38.321Z,20.45
2023-05-15T11:58:07.187Z,20.48
2023-05-15T12:00:35.044Z,20.51
2023-05-15T12:03:03.911Z,20.62
2023-05-15T12:05:31.862Z,20.90
2023-05-15T12:07:59.696Z,21.43
2023-05-15T12:10:27.770Z,21.55
2023-05-15T12:12:56.933Z,21.58
2023-05-15T12:15:24.926Z,21.45
2023-05-15T12:17:52.654Z,21.20
2023-05-15T12:20:20.600Z,21.06
2023-05-15T12:22:48.296Z,21.02
2023-05-15T12:25:17.757Z,21.08
2023-05-15T12:27:45.795Z,21.08
2023-05-15T12:30:16.257Z,21.01
2023-05-15T12:32:44.651Z,20.97
2023-05-15T12:35:13.044Z,20.89
2023-05-15T12:37:43.111Z,20.78
2023-05-15T12:40:11.743Z,20.70
2023-05-15T12:42:41.188Z,20.55
2023-05-15T12:45:15.757Z,20.50
2023-05-15T12:47:44.978Z,20.45
2023-05-15T12:50:14.692Z,20.43
2023-05-15T12:52:48.039Z,20.44
2023-05-15T12:55:19.506Z,20.44
2023-05-15T12:57:47.423Z,20.41
2023-05-15T13:00:17.353Z,20.37
2023-05-15T13:02:46.103Z,20.33
2023-05-15T13:05:14.816Z,20.24
2023-05-15T13:07:44.114Z,20.29
2023-05-15T13:10:13.318Z,20.39
2023-05-15T13:12:44.924Z,20.42
2023-05-15T13:15:26.171Z,20.47
2023-05-15T13:17:57.464Z,20.50
2023-05-15T13:20:25.591Z,20.48
2023-05-15T13:22:53.385Z,20.52
2023-05-15T13:25:21.878Z,20.52
2023-05-15T13:27:50.031Z,20.52
2023-05-15T13:30:18.736Z,20.52
2023-05-15T13:32:48.076Z,20.52
2023-05-15T13:35:16.370Z,20.54
2023-05-15T13:37:44.398Z,20.54
2023-05-15T13:40:13.380Z,20.53
2023-05-15T13:42:42.789Z,20.54
2023-05-15T13:45:12.099Z,20.56
2023-05-15T13:47:40.522Z,20.50
2023-05-15T13:50:11.927Z,20.55
2023-05-15T13:52:40.712Z,20.84
2023-05-15T13:55:10.429Z,21.41
2023-05-15T13:57:38.797Z,21.87
2023-05-15T14:00:07.848Z,21.86
2023-05-15T14:02:35.592Z,21.57
2023-05-15T14:05:04.573Z,21.36
2023-05-15T14:07:33.559Z,21.17
2023-05-15T14:10:01.368Z,21.38
2023-05-15T14:12:29.255Z,21.86
2023-05-15T14:14:57.052Z,21.89
2023-05-15T14:17:25.323Z,21.50
2023-05-15T14:19:53.196Z,21.33
2023-05-15T14:22:24.556Z,21.18
2023-05-15T14:24:55.022Z,21.19
2023-05-15T14:27:23.401Z,21.30
2023-05-15T14:29:52.297Z,21.37
2023-05-15T14:32:21.833Z,21.41
2023-05-15T14:34:50.657Z,21.37
2023-05-15T14:37:19.622Z,21.33
2023-05-15T14:39:47.920Z,21.22
2023-05-15T14:42:17.378Z,21.12
2023-05-15T14:44:45.073Z,21.00
2023-05-15T14:47:13.997Z,20.87
2023-05-15T14:49:42.261Z,20.73
2023-05-15T14:52:11.548Z,20.62
2023-05-15T14:54:40.174Z,20.62
2023-05-15T14:57:08.819Z,20.57
2023-05-15T14:59:37.835Z,20.46
2023-05-15T15:02:07.455Z,20.44
2023-05-15T15:04:35.088Z,20.44
2023-05-15T15:07:05.485Z,20.43
2023-05-15T15:09:33.166Z,20.50
2023-05-15T15:12:01.318Z,20.56
2023-05-15T15:14:28.963Z,20.59
2023-05-15T15:16:58.064Z,20.60
2023-05-15T15:19:25.824Z,20.67
2023-05-15T15:21:53.675Z,20.71
2023-05-15T15:24:21.388Z,20.67
2023-05-15T15:26:49.016Z,20.68
2023-05-15T15:29:16.950Z,20.73
2023-05-15T15:31:44.939Z,20.69
2023-05-15T15:34:14.223Z,20.61
2023-05-15T15:36:43.459Z,20.67
2023-05-15T15:39:13.083Z,20.67
2023-05-15T15:41:40.932Z,20.68
2023-05-15T15:44:08.597Z,20.74
2023-05-15T15:46:36.678Z,20.80
2023-05-15T15:49:06.489Z,20.73
2023-05-15T15:51:36.146Z,20.67
2023-05-15T15:54:04.167Z,20.61
2023-05-15T15:56:32.088Z,20.51
2023-05-15T15:59:00.180Z,20.36
2023-05-15T16:01:28.722Z,20.34
2023-05-15T16:03:57.177Z,20.23
2023-05-15T16:06:25.212Z,19.95
2023-05-15T16:08:56.651Z,19.81
2023-05-15T16:11:24.879Z,19.65
2023-05-15T16:13:53.712Z,19.54
2023-05-15T16:16:22.109Z,19.39
2023-05-15T16:18:50.017Z,19.18
2023-05-15T16:21:18.080Z,18.92
2023-05-15T16:23:46.182Z,18.91
2023-05-15T16:26:15.209Z,18.99
2023-05-15T16:28:42.898Z,18.81
2023-05-15T16:31:10.796Z,18.63
2023-05-15T16:33:38.627Z,18.51
2023-05-15T16:36:06.918Z,18.52
2023-05-15T16:38:34.708Z,18.57
2023-05-15T16:41:03.513Z,18.53
2023-05-15T16:43:32.724Z,18.56
2023-05-15T16:46:00.602Z,18.57
2023-05-15T16:48:28.762Z,18.63
2023-05-15T16:50:56.802Z,18.69
2023-05-15T16:53:24.660Z,18.81
2023-05-15T16:55:52.289Z,18.93
2023-05-15T16:58:20.226Z,19.01
2023-05-15T17:00:50.138Z,19.00
2023-05-15T17:03:18.941Z,19.01
2023-05-15T17:05:48.742Z,19.08
2023-05-15T17:08:16.698Z,19.13
2023-05-15T17:10:44.432Z,19.17
2023-05-15T17:13:12.453Z,19.19
2023-05-15T17:15:40.135Z,19.18
2023-05-15T17:18:10.042Z,19.15
2023-05-15T17:20:37.964Z,19.16
2023-05-15T17:23:05.698Z,19.07
2023-05-15T17:25:33.817Z,19.07
2023-05-15T17:28:01.894Z,19.08
2023-05-15T17:30:29.608Z,19.08
2023-05-15T17:32:57.638Z,19.06
2023-05-15T17:35:26.863Z,18.96
2023-05-15T17:37:54.748Z,18.94
2023-05-15T17:40:22.727Z,18.96
2023-05-15T17:42:50.733Z,18.81
2023-05-15T17:45:18.401Z,18.73
2023-05-15T17:47:46.291Z,18.61
2023-05-15T17:50:14.488Z,18.57
2023-05-15T17:52:43.701Z,18.40
2023-05-15T17:55:11.557Z,18.22
2023-05-15T17:57:39.281Z,18.17
2023-05-15T18:00:08.798Z,18.13
2023-05-15T18:02:36.881Z,18.04
2023-05-15T18:05:08.528Z,18.04
2023-05-15T18:07:36.265Z,17.94
2023-05-15T18:10:06.698Z,17.94
2023-05-15T18:12:35.239Z,17.86
2023-05-15T18:15:03.516Z,17.89
2023-05-15T18:17:31.983Z,17.85
2023-05-15T18:20:01.706Z,17.77
2023-05-15T18:22:29.832Z,17.64
2023-05-15T18:24:57.761Z,17.56
2023-05-15T18:27:26.970Z,17.53
2023-05-15T18:29:55.084Z,17.55
2023-05-15T18:32:22.975Z,17.46
2023-05-15T18:34:50.804Z,17.22
2023-05-15T18:37:18.507Z,17.13
2023-05-15T18:39:47.887Z,17.04
2023-05-15T18:42:16.064Z,16.98
2023-05-15T18:44:46.411Z,17.11
2023-05-15T18:47:14.243Z,17.18
2023-05-15T18:49:42.198Z,17.11
2023-05-15T18:52:10.648Z,17.02
2023-05-15T18:54:40.561Z,17.02
2023-05-15T18:57:09.151Z,16.99
2023-05-15T18:59:37.166Z,17.02
2023-05-15T19:02:07.080Z,17.01
2023-05-15T19:04:35.078Z,16.93
2023-05-15T19:07:02.940Z,16.85
2023-05-15T19:09:31.562Z,16.79
2023-05-15T19:12:00.534Z,16.76
2023-05-15T19:14:28.224Z,16.75
2023-05-15T19:16:56.136Z,16.69
2023-05-15T19:19:26.300Z,16.58
2023-05-15T19:21:54.890Z,16.55
2023-05-15T19:24:22.721Z,16.53
2023-05-15T19:26:50.842Z,16.55
2023-05-15T19:29:18.828Z,16.68
2023-05-15T19:31:46.706Z,16.87
2023-05-15T19:34:14.537Z,16.92
2023-05-15T19:36:46.030Z,16.89
2023-05-15T19:39:13.724Z,16.64
2023-05-15T19:41:42.363Z,16.44
2023-05-15T19:44:10.320Z,16.19
2023-05-15T19:46:39.194Z,16.04
2023-05-15T19:49:07.714Z,15.99
2023-05-15T19:51:36.185Z,15.91
2023-05-15T19:54:05.827Z,15.81
2023-05-15T19:56:33.924Z,15.74
2023-05-15T19:59:01.808Z,15.77
2023-05-15T20:01:29.803Z,15.71
2023-05-15T20:03:57.988Z,15.58
2023-05-15T20:06:26.174Z,15.45
2023-05-15T20:08:54.204Z,15.43
2023-05-15T20:11:24.011Z,15.39
2023-05-15T20:13:53.223Z,15.36
2023-05-15T20:16:21.802Z,15.36
2023-05-15T20:18:55.561Z,15.27
2023-05-15T20:21:23.272Z,15.39
2023-05-15T20:23:51.104Z,15.43
2023-05-15T20:26:19.954Z,15.42
2023-05-15T20:28:48.986Z,15.41
2023-05-15T20:31:16.655Z,15.00
2023-05-15T20:33:44.578Z,15.08
2023-05-15T20:36:12.863Z,15.18
2023-05-15T20:38:41.234Z,15.20
2023-05-15T20:41:08.831Z,15.16
2023-05-15T20:43:36.853Z,15.15
2023-05-15T20:46:08.736Z,15.09
2023-05-15T20:48:36.950Z,15.04
2023-05-15T20:51:04.722Z,15.09
2023-05-15T20:53:32.553Z,14.97
2023-05-15T20:56:00.850Z,15.02
2023-05-15T20:58:28.798Z,15.03
2023-05-15T21:00:58.183Z,14.96
2023-05-15T21:03:27.401Z,14.92
2023-05-15T21:05:56.976Z,14.98
2023-05-15T21:08:25.394Z,14.98
2023-05-15T21:10:55.335Z,15.01
2023-05-15T21:13:23.053Z,15.03
2023-05-15T21:15:51.482Z,14.91
2023-05-15T21:18:19.475Z,14.81
2023-05-15T21:20:48.416Z,14.82
2023-05-15T21:23:16.339Z,14.74
2023-05-15T21:25:44.694Z,14.53
2023-05-15T21:28:12.415Z,14.46
2023-05-15T21:30:40.182Z,14.38
2023-05-15T21:33:08.332Z,14.40
2023-05-15T21:35:36.224Z,14.40
2023-05-15T21:38:05.415Z,14.30
2023-05-15T21:40:33.430Z,14.19
2023-05-15T21:43:01.386Z,13.93
2023-05-15T21:45:30.469Z,13.46
2023-05-15T21:47:58.486Z,13.26
2023-05-15T21:50:26.958Z,13.41
2023-05-15T21:52:54.702Z,13.49
2023-05-15T21:55:23.679Z,13.56
2023-05-15T21:57:51.390Z,13.68
2023-05-15T22:00:20.173Z,13.82
2023-05-15T22:02:47.948Z,13.83
2023-05-15T22:05:16.131Z,13.78
2023-05-15T22:07:44.450Z,13.81
2023-05-15T22:10:16.179Z,13.64
2023-05-15T22:12:45.412Z,13.45
2023-05-15T22:15:14.669Z,13.44
2023-05-15T22:17:42.554Z,13.51
2023-05-15T22:20:11.629Z,13.41
2023-05-15T22:22:41.114Z,13.32
2023-05-15T22:25:09.552Z,13.33
2023-05-15T22:27:37.501Z,13.21
2023-05-15T22:30:08.519Z,13.22
2023-05-15T22:32:36.165Z,13.30
2023-05-15T22:35:04.504Z,13.40
2023-05-15T22:37:32.191Z,13.46
2023-05-15T22:40:00.039Z,13.42
2023-05-15T22:42:27.975Z,13.20
2023-05-15T22:44:57.426Z,13.22
2023-05-15T22:47:28.311Z,13.33
2023-05-15T22:49:56.547Z,13.28
2023-05-15T22:52:24.211Z,13.23
2023-05-15T22:54:52.210Z,13.26
2023-05-15T22:57:20.032Z,13.34
2023-05-15T22:59:47.662Z,13.27
2023-05-15T23:02:15.412Z,13.38
2023-05-15T23:04:44.427Z,13.39
2023-05-15T23:07:12.292Z,13.44
2023-05-15T23:09:40.123Z,13.47
2023-05-15T23:12:08.518Z,13.33
2023-05-15T23:14:36.304Z,13.29
2023-05-15T23:17:04.194Z,13.28
2023-05-15T23:19:32.133Z,13.30
2023-05-15T23:22:02.145Z,13.39
2023-05-15T23:24:29.994Z,13.35
2023-05-15T23:26:57.673Z,13.29
2023-05-15T23:29:25.589Z,13.25
2023-05-15T23:31:53.592Z,13.30
2023-05-15T23:34:21.400Z,13.26
2023-05-15T23:36:49.370Z,13.18
2023-05-15T23:39:18.418Z,13.17
2023-05-15T23:41:46.163Z,12.96
2023-05-15T23:44:13.955Z,12.78
2023-05-15T23:46:41.632Z,12.76
2023-05-15T23:49:09.748Z,12.91
2023-05-15T23:51:37.750Z,12.92
2023-05-15T23:54:05.773Z,12.86
2023-05-15T23:56:34.989Z,12.80
2023-05-15T23:59:02.789Z,12.78
